Northern Cambria, Pennsylvania
Current Conditions -  °F | °C
As of 8:15 PM on Monday 26 Jan 2015 (Local Time) from KIDI Reporting Station
Haze Haze  
Wind Chill: 16°   Ceiling: 2000
Heat Index: 23°   Visibility: 3mi
Dew Point: 19°   Wind: 6mph
Humidity: 86%   Direction: 40°NE
Pressure: 29.81"   Gusts: NA
Location:  40.6905°N, 78.7599°W
Report Text: KIDI 270115Z AUTO 04005KT 3SM BR OVC020 M05/M07 A2981 RMK A01
Loading
Personal Weather Stations






























Interactive Weather Map New forecast layout! Learn more

10-Day Weather Forecast

Advertisements
Track Severe Weather on mobile